createdAt,value
2023-01-29T00:00:22.103Z,102955.19
2023-01-29T00:02:48.609Z,102958.56
2023-01-29T00:05:27.024Z,102952.25
2023-01-29T00:07:54.600Z,102942.34
2023-01-29T00:10:21.112Z,102954.72
2023-01-29T00:12:47.569Z,102946.84
2023-01-29T00:15:14.008Z,102959.44
2023-01-29T00:17:40.446Z,102957.09
2023-01-29T00:20:07.153Z,102953.34
2023-01-29T00:22:33.541Z,102949.72
2023-01-29T00:25:00.267Z,102947.81
2023-01-29T00:27:26.680Z,102939.88
2023-01-29T00:30:13.407Z,102930.28
2023-01-29T00:32:40.596Z,102920.78
2023-01-29T00:35:08.468Z,102919.06
2023-01-29T00:37:35.498Z,102929.84
2023-01-29T00:40:02.010Z,102927.91
2023-01-29T00:42:47.114Z,102925.56
2023-01-29T00:45:13.680Z,102924.63
2023-01-29T00:47:40.066Z,102923.47
2023-01-29T00:50:09.768Z,102915.44
2023-01-29T00:52:36.732Z,102918.84
2023-01-29T00:55:04.804Z,102919.06
2023-01-29T00:57:32.754Z,102916.06
2023-01-29T00:59:59.827Z,102918.72
2023-01-29T01:02:44.803Z,102915.75
2023-01-29T01:05:19.145Z,102929.00
2023-01-29T01:07:53.854Z,102922.69
2023-01-29T01:10:29.937Z,102927.50
2023-01-29T01:13:02.165Z,102930.59
2023-01-29T01:15:31.261Z,102933.06
2023-01-29T01:18:00.510Z,102928.69
2023-01-29T01:20:29.347Z,102923.97
2023-01-29T01:22:56.664Z,102929.13
2023-01-29T01:25:24.629Z,102931.53
2023-01-29T01:27:55.699Z,102934.84
2023-01-29T01:30:23.659Z,102931.00
2023-01-29T01:32:50.398Z,102933.59
2023-01-29T01:35:17.001Z,102930.03
2023-01-29T01:37:43.521Z,102920.31
2023-01-29T01:40:36.346Z,102922.47
2023-01-29T01:43:02.751Z,102927.94
2023-01-29T01:45:36.335Z,102934.22
2023-01-29T01:48:15.208Z,102926.31
2023-01-29T01:50:47.529Z,102931.66
2023-01-29T01:53:19.681Z,102925.25
2023-01-29T01:55:52.450Z,102924.16
2023-01-29T01:58:30.042Z,102924.94
2023-01-29T02:00:57.020Z,102926.84
2023-01-29T02:03:44.757Z,102918.94
2023-01-29T02:06:29.953Z,102912.84
2023-01-29T02:09:23.520Z,102917.25
2023-01-29T02:11:51.595Z,102923.78
2023-01-29T02:14:18.571Z,102920.97
2023-01-29T02:16:45.496Z,102923.66
2023-01-29T02:19:26.433Z,102933.47
2023-01-29T02:22:12.027Z,102937.84
2023-01-29T02:24:59.687Z,102933.56
2023-01-29T02:27:48.736Z,102943.53
2023-01-29T02:30:54.386Z,102949.84
2023-01-29T02:33:33.744Z,102939.38
2023-01-29T02:36:29.752Z,102935.72
2023-01-29T02:39:05.182Z,102938.19
2023-01-29T02:41:51.893Z,102930.06
2023-01-29T02:44:36.991Z,102927.28
2023-01-29T02:47:15.615Z,102928.22
2023-01-29T02:50:03.209Z,102918.53
2023-01-29T02:52:56.793Z,102920.22
2023-01-29T02:55:32.089Z,102913.19
2023-01-29T02:58:11.268Z,102904.44
2023-01-29T03:00:44.303Z,102912.44
2023-01-29T03:03:17.561Z,102901.84
2023-01-29T03:05:53.358Z,102904.97
2023-01-29T03:08:36.842Z,102903.38
2023-01-29T03:11:06.480Z,102903.28
2023-01-29T03:13:43.472Z,102901.47
2023-01-29T03:16:22.538Z,102899.22
2023-01-29T03:18:57.534Z,102891.31
2023-01-29T03:22:00.967Z,102893.44
2023-01-29T03:24:58.082Z,102886.41
2023-01-29T03:27:50.282Z,102883.41
2023-01-29T03:30:38.395Z,102881.81
2023-01-29T03:33:28.341Z,102868.47
2023-01-29T03:36:13.257Z,102872.97
2023-01-29T03:38:40.703Z,102874.03
2023-01-29T03:41:14.532Z,102863.22
2023-01-29T03:43:55.007Z,102866.66
2023-01-29T03:46:54.654Z,102863.00
2023-01-29T03:49:34.350Z,102861.41
2023-01-29T03:52:18.168Z,102859.06
2023-01-29T03:55:01.086Z,102873.16
2023-01-29T03:57:38.456Z,102867.84
2023-01-29T04:00:07.761Z,102867.84
2023-01-29T04:02:51.932Z,102860.56
2023-01-29T04:05:27.576Z,102855.13
2023-01-29T04:08:12.818Z,102858.84
2023-01-29T04:10:44.053Z,102855.47
2023-01-29T04:13:14.903Z,102851.69
2023-01-29T04:16:06.497Z,102845.38
2023-01-29T04:18:56.082Z,102851.06
2023-01-29T04:21:31.870Z,102845.72
2023-01-29T04:23:59.146Z,102838.56
2023-01-29T04:26:47.653Z,102831.53
2023-01-29T04:29:40.093Z,102827.47
2023-01-29T04:32:34.245Z,102832.91
2023-01-29T04:35:25.289Z,102828.88
2023-01-29T04:38:11.406Z,102831.53
2023-01-29T04:40:53.456Z,102821.84
2023-01-29T04:43:29.367Z,102816.84
2023-01-29T04:46:19.867Z,102806.16
2023-01-29T04:49:05.018Z,102799.72
2023-01-29T04:51:50.141Z,102801.47
2023-01-29T04:54:28.856Z,102804.00
2023-01-29T04:57:06.230Z,102803.38
2023-01-29T04:59:40.152Z,102798.78
2023-01-29T05:02:09.939Z,102794.63
2023-01-29T05:04:40.923Z,102791.63
2023-01-29T05:07:13.097Z,102796.84
2023-01-29T05:09:42.941Z,102797.63
2023-01-29T05:12:12.525Z,102804.72
2023-01-29T05:14:42.112Z,102802.06
2023-01-29T05:17:14.153Z,102820.53
2023-01-29T05:19:41.034Z,102801.00
2023-01-29T05:22:11.126Z,102800.16
2023-01-29T05:24:37.981Z,102788.63
2023-01-29T05:27:23.242Z,102793.97
2023-01-29T05:29:49.718Z,102789.91
2023-01-29T05:32:16.502Z,102785.44
2023-01-29T05:34:42.931Z,102789.91
2023-01-29T05:37:10.457Z,102792.28
2023-01-29T05:39:36.851Z,102798.22
2023-01-29T05:42:03.401Z,102801.00
2023-01-29T05:44:29.821Z,102797.81
2023-01-29T05:46:56.476Z,102794.50
2023-01-29T05:49:22.905Z,102788.97
2023-01-29T05:51:49.776Z,102782.66
2023-01-29T05:54:16.238Z,102770.28
2023-01-29T05:56:42.708Z,102769.75
2023-01-29T05:59:09.115Z,102772.19
2023-01-29T06:01:35.885Z,102762.38
2023-01-29T06:04:02.381Z,102755.22
2023-01-29T06:06:28.818Z,102751.81
2023-01-29T06:08:56.049Z,102755.22
2023-01-29T06:11:22.696Z,102756.09
2023-01-29T06:13:49.176Z,102752.47
2023-01-29T06:16:16.034Z,102749.56
2023-01-29T06:18:42.975Z,102735.59
2023-01-29T06:21:12.200Z,102739.13
2023-01-29T06:23:38.980Z,102735.81
2023-01-29T06:26:15.555Z,102749.28
2023-01-29T06:28:42.469Z,102745.50
2023-01-29T06:31:24.951Z,102741.88
2023-01-29T06:33:55.363Z,102744.44
2023-01-29T06:36:21.776Z,102750.50
2023-01-29T06:38:48.339Z,102741.44
2023-01-29T06:41:18.451Z,102748.59
2023-01-29T06:43:45.865Z,102737.81
2023-01-29T06:46:12.457Z,102736.97
2023-01-29T06:48:38.925Z,102748.38
2023-01-29T06:51:10.210Z,102741.97
2023-01-29T06:53:38.407Z,102731.50
2023-01-29T06:56:05.791Z,102728.81
2023-01-29T06:58:32.216Z,102730.66
2023-01-29T07:01:11.721Z,102725.78
2023-01-29T07:03:42.632Z,102734.75
2023-01-29T07:06:09.667Z,102732.16
2023-01-29T07:08:37.704Z,102729.41
2023-01-29T07:11:04.924Z,102730.13
2023-01-29T07:13:31.517Z,102740.69
2023-01-29T07:16:01.749Z,102744.25
2023-01-29T07:18:29.244Z,102742.41
2023-01-29T07:20:56.242Z,102748.09
2023-01-29T07:23:22.852Z,102747.22
2023-01-29T07:25:52.172Z,102745.19
2023-01-29T07:28:20.525Z,102744.97
2023-01-29T07:30:47.216Z,102744.75
2023-01-29T07:33:13.653Z,102741.44
2023-01-29T07:35:42.621Z,102729.72
2023-01-29T07:38:10.865Z,102716.66
2023-01-29T07:40:37.562Z,102725.84
2023-01-29T07:43:06.637Z,102725.66
2023-01-29T07:45:35.383Z,102728.53
2023-01-29T07:48:01.947Z,102712.53
2023-01-29T07:50:28.481Z,102709.25
2023-01-29T07:52:55.078Z,102701.97
2023-01-29T07:55:22.020Z,102696.50
2023-01-29T07:57:48.505Z,102696.00
2023-01-29T08:00:15.844Z,102694.31
2023-01-29T08:02:42.539Z,102695.38
2023-01-29T08:05:09.197Z,102693.03
2023-01-29T08:07:35.641Z,102686.00
2023-01-29T08:10:02.068Z,102696.84
2023-01-29T08:12:28.530Z,102696.00
2023-01-29T08:14:54.926Z,102690.66
2023-01-29T08:17:21.343Z,102695.91
2023-01-29T08:19:47.762Z,102690.44
2023-01-29T08:22:16.438Z,102685.97
2023-01-29T08:24:53.861Z,102691.41
2023-01-29T08:27:26.622Z,102693.00
2023-01-29T08:29:53.052Z,102690.44
2023-01-29T08:32:19.451Z,102678.06
2023-01-29T08:34:45.847Z,102678.06
2023-01-29T08:37:12.220Z,102679.44
2023-01-29T08:39:38.725Z,102673.88
2023-01-29T08:42:05.133Z,102676.53
2023-01-29T08:44:31.575Z,102671.44
2023-01-29T08:46:58.021Z,102670.72
2023-01-29T08:49:24.626Z,102670.72
2023-01-29T08:51:53.819Z,102667.91
2023-01-29T08:54:20.199Z,102659.69
2023-01-29T08:56:46.597Z,102666.59
2023-01-29T08:59:13.200Z,102665.53
2023-01-29T09:01:39.676Z,102663.50
2023-01-29T09:04:06.118Z,102654.09
2023-01-29T09:06:32.478Z,102655.81
2023-01-29T09:08:58.842Z,102653.16
2023-01-29T09:11:25.317Z,102655.56
2023-01-29T09:13:52.002Z,102655.47
2023-01-29T09:16:18.527Z,102654.16
2023-01-29T09:18:44.960Z,102658.03
2023-01-29T09:21:11.411Z,102656.97
2023-01-29T09:23:37.965Z,102655.56
2023-01-29T09:26:04.614Z,102660.06
2023-01-29T09:28:31.012Z,102663.59
2023-01-29T09:31:01.544Z,102651.34
2023-01-29T09:33:28.145Z,102662.66
2023-01-29T09:35:54.823Z,102654.28
2023-01-29T09:38:21.236Z,102665.81
2023-01-29T09:40:58.587Z,102658.44
2023-01-29T09:43:44.032Z,102660.25
2023-01-29T09:46:20.199Z,102654.66
2023-01-29T09:48:50.358Z,102653.81
2023-01-29T09:51:50.339Z,102647.19
2023-01-29T09:54:31.083Z,102643.69
2023-01-29T09:56:57.663Z,102637.56
2023-01-29T09:59:27.718Z,102633.94
2023-01-29T10:02:03.857Z,102633.94
2023-01-29T10:04:51.999Z,102640.53
2023-01-29T10:07:50.052Z,102620.72
2023-01-29T10:10:43.353Z,102626.19
2023-01-29T10:13:29.694Z,102620.84
2023-01-29T10:16:18.567Z,102613.81
2023-01-29T10:18:44.931Z,102619.66
2023-01-29T10:21:37.574Z,102611.66
2023-01-29T10:24:12.265Z,102614.00
2023-01-29T10:26:40.609Z,102612.44
2023-01-29T10:29:08.550Z,102610.72
2023-01-29T10:31:39.783Z,102608.53
2023-01-29T10:34:12.155Z,102613.13
2023-01-29T10:36:45.855Z,102605.47
2023-01-29T10:39:18.573Z,102606.94
2023-01-29T10:42:11.451Z,102599.31
2023-01-29T10:44:50.564Z,102599.75
2023-01-29T10:47:32.378Z,102600.59
2023-01-29T10:50:25.448Z,102599.47
2023-01-29T10:53:08.011Z,102599.72
2023-01-29T10:55:52.413Z,102595.31
2023-01-29T10:58:41.758Z,102585.47
2023-01-29T11:01:09.923Z,102582.09
2023-01-29T11:03:36.782Z,102589.97
2023-01-29T11:06:24.163Z,102593.06
2023-01-29T11:09:05.637Z,102575.25
2023-01-29T11:11:41.511Z,102562.13
2023-01-29T11:14:14.805Z,102571.25
2023-01-29T11:16:44.177Z,102559.69
2023-01-29T11:19:11.582Z,102552.84
2023-01-29T11:21:58.126Z,102543.75
2023-01-29T11:24:24.734Z,102544.72
2023-01-29T11:26:54.178Z,102545.31
2023-01-29T11:29:39.710Z,102538.16
2023-01-29T11:32:11.687Z,102541.53
2023-01-29T11:35:03.448Z,102543.34
2023-01-29T11:37:32.522Z,102542.28
2023-01-29T11:39:59.237Z,102543.34
2023-01-29T11:42:31.415Z,102539.00
2023-01-29T11:44:57.814Z,102528.31
2023-01-29T11:47:29.972Z,102534.28
2023-01-29T11:49:58.976Z,102519.44
2023-01-29T11:52:35.297Z,102523.34
2023-01-29T11:55:40.984Z,102510.34
2023-01-29T11:58:32.542Z,102500.75
2023-01-29T12:01:00.841Z,102505.88
2023-01-29T12:03:43.769Z,102491.66
2023-01-29T12:06:28.269Z,102497.25
2023-01-29T12:08:57.980Z,102501.34
2023-01-29T12:11:27.218Z,102493.47
2023-01-29T12:13:55.684Z,102493.47
2023-01-29T12:16:51.391Z,102484.72
2023-01-29T12:19:39.957Z,102477.81
2023-01-29T12:22:27.245Z,102470.41
2023-01-29T12:25:16.264Z,102459.84
2023-01-29T12:28:00.227Z,102453.06
2023-01-29T12:30:38.884Z,102448.56
2023-01-29T12:33:14.873Z,102437.88
2023-01-29T12:35:50.247Z,102428.88
2023-01-29T12:38:23.999Z,102428.28
2023-01-29T12:40:55.344Z,102411.91
2023-01-29T12:43:38.669Z,102405.59
2023-01-29T12:46:10.752Z,102395.63
2023-01-29T12:48:42.094Z,102381.31
2023-01-29T12:51:14.205Z,102379.13
2023-01-29T12:53:47.931Z,102372.31
2023-01-29T12:56:20.750Z,102365.66
2023-01-29T12:58:54.224Z,102357.16
2023-01-29T13:01:31.227Z,102355.97
2023-01-29T13:04:06.813Z,102350.50
2023-01-29T13:06:41.521Z,102346.13
2023-01-29T13:09:30.173Z,102337.50
2023-01-29T13:12:01.702Z,102329.97
2023-01-29T13:14:58.911Z,102332.88
2023-01-29T13:17:32.965Z,102319.31
2023-01-29T13:20:09.048Z,102315.31
2023-01-29T13:22:40.453Z,102311.53
2023-01-29T13:25:12.216Z,102301.97
2023-01-29T13:27:39.048Z,102305.13
2023-01-29T13:30:05.995Z,102294.97
2023-01-29T13:32:35.550Z,102297.91
2023-01-29T13:35:14.027Z,102291.69
2023-01-29T13:37:49.021Z,102281.16
2023-01-29T13:40:26.678Z,102282.28
2023-01-29T13:42:57.259Z,102296.72
2023-01-29T13:45:43.257Z,102288.56
2023-01-29T13:48:19.417Z,102285.66
2023-01-29T13:50:47.134Z,102282.25
2023-01-29T13:53:26.967Z,102277.88
2023-01-29T13:55:53.551Z,102276.34
2023-01-29T13:58:32.119Z,102279.56
2023-01-29T14:01:01.219Z,102276.66
2023-01-29T14:03:29.984Z,102263.81
2023-01-29T14:06:04.979Z,102264.16
2023-01-29T14:08:34.105Z,102263.44
2023-01-29T14:11:15.989Z,102260.53
2023-01-29T14:13:44.570Z,102250.41
2023-01-29T14:16:14.548Z,102249.31
2023-01-29T14:18:50.565Z,102242.53
2023-01-29T14:21:16.853Z,102249.09
2023-01-29T14:23:55.876Z,102240.84
2023-01-29T14:26:45.241Z,102233.97
2023-01-29T14:29:34.308Z,102223.78
2023-01-29T14:32:17.883Z,102220.97
2023-01-29T14:34:47.741Z,102226.06
2023-01-29T14:37:16.874Z,102218.03
2023-01-29T14:39:46.974Z,102223.84
2023-01-29T14:42:23.432Z,102217.19
2023-01-29T14:44:55.656Z,102220.94
2023-01-29T14:47:21.999Z,102217.88
2023-01-29T14:49:59.490Z,102222.22
2023-01-29T14:52:47.406Z,102215.44
2023-01-29T14:55:32.049Z,102218.13
2023-01-29T14:57:59.187Z,102210.09
2023-01-29T15:00:33.517Z,102206.59
2023-01-29T15:03:02.603Z,102215.84
2023-01-29T15:05:35.832Z,102195.31
2023-01-29T15:08:23.630Z,102192.53
2023-01-29T15:11:14.324Z,102204.56
2023-01-29T15:13:57.246Z,102203.50
2023-01-29T15:16:42.034Z,102199.47
2023-01-29T15:19:18.019Z,102187.94
2023-01-29T15:22:04.704Z,102191.34
2023-01-29T15:24:31.214Z,102180.13
2023-01-29T15:26:57.967Z,102182.81
2023-01-29T15:29:27.435Z,102182.69
2023-01-29T15:31:55.507Z,102188.03
2023-01-29T15:34:22.368Z,102184.88
2023-01-29T15:36:50.171Z,102188.97
2023-01-29T15:39:16.550Z,102185.97
2023-01-29T15:41:44.444Z,102184.13
2023-01-29T15:44:21.985Z,102185.09
2023-01-29T15:46:58.666Z,102180.97
2023-01-29T15:49:37.586Z,102178.22
2023-01-29T15:52:07.860Z,102182.72
2023-01-29T15:54:35.610Z,102174.97
2023-01-29T15:57:03.475Z,102183.50
2023-01-29T15:59:35.241Z,102182.31
2023-01-29T16:02:26.353Z,102179.63
2023-01-29T16:04:52.852Z,102173.56
2023-01-29T16:07:22.506Z,102165.91
2023-01-29T16:09:50.580Z,102166.25
2023-01-29T16:12:17.200Z,102163.59
2023-01-29T16:14:44.297Z,102166.28
2023-01-29T16:17:24.879Z,102161.31
2023-01-29T16:19:59.836Z,102160.56
2023-01-29T16:22:34.172Z,102157.25
2023-01-29T16:25:14.866Z,102146.97
2023-01-29T16:27:44.107Z,102148.41
2023-01-29T16:30:16.121Z,102144.38
2023-01-29T16:32:42.858Z,102148.84
2023-01-29T16:35:17.035Z,102137.34
2023-01-29T16:37:48.872Z,102144.50
2023-01-29T16:40:32.919Z,102143.13
2023-01-29T16:43:17.485Z,102148.72
2023-01-29T16:46:03.105Z,102150.81
2023-01-29T16:48:34.979Z,102147.28
2023-01-29T16:51:12.325Z,102134.91
2023-01-29T16:53:38.727Z,102126.78
2023-01-29T16:56:08.189Z,102139.41
2023-01-29T16:58:35.367Z,102126.78
2023-01-29T17:01:10.955Z,102131.16
2023-01-29T17:03:39.758Z,102142.81
2023-01-29T17:06:11.883Z,102133.44
2023-01-29T17:08:41.212Z,102127.09
2023-01-29T17:11:08.151Z,102134.28
2023-01-29T17:13:42.673Z,102111.81
2023-01-29T17:16:23.778Z,102110.09
2023-01-29T17:18:50.335Z,102102.63
2023-01-29T17:21:16.851Z,102114.09
2023-01-29T17:23:43.416Z,102103.50
2023-01-29T17:26:12.942Z,102098.91
2023-01-29T17:28:40.256Z,102096.84
2023-01-29T17:31:07.803Z,102091.88
2023-01-29T17:33:43.060Z,102089.72
2023-01-29T17:36:15.324Z,102080.53
2023-01-29T17:38:41.897Z,102085.34
2023-01-29T17:41:29.956Z,102083.13
2023-01-29T17:43:56.496Z,102077.81
2023-01-29T17:46:22.957Z,102079.09
2023-01-29T17:48:49.532Z,102072.91
2023-01-29T17:51:17.575Z,102068.69
2023-01-29T17:53:46.456Z,102066.72
2023-01-29T17:56:18.793Z,102061.38
2023-01-29T17:58:45.413Z,102067.13
2023-01-29T18:01:11.871Z,102063.06
2023-01-29T18:03:38.403Z,102047.66
2023-01-29T18:06:08.369Z,102054.56
2023-01-29T18:08:37.929Z,102052.06
2023-01-29T18:11:04.534Z,102044.91
2023-01-29T18:13:31.254Z,102045.75
2023-01-29T18:15:57.990Z,102042.25
2023-01-29T18:18:24.832Z,102026.38
2023-01-29T18:20:51.549Z,102017.75
2023-01-29T18:23:18.198Z,102028.00
2023-01-29T18:25:44.850Z,102014.66
2023-01-29T18:28:16.979Z,102011.91
2023-01-29T18:30:46.878Z,102007.53
2023-01-29T18:33:14.198Z,102001.41
2023-01-29T18:35:40.679Z,101983.44
2023-01-29T18:38:07.354Z,101980.06
2023-01-29T18:40:33.850Z,101973.63
2023-01-29T18:43:00.821Z,101969.69
2023-01-29T18:45:28.708Z,101966.59
2023-01-29T18:47:55.705Z,101956.88
2023-01-29T18:50:26.343Z,101955.59
2023-01-29T18:52:55.825Z,101968.69
2023-01-29T18:55:23.043Z,101973.88
2023-01-29T18:58:25.134Z,101967.50
2023-01-29T19:00:40.459Z,101971.00
2023-01-29T19:03:06.936Z,101956.09
2023-01-29T19:05:33.788Z,101968.94
2023-01-29T19:08:00.214Z,101968.94
2023-01-29T19:10:26.651Z,101966.69
2023-01-29T19:12:53.101Z,101951.66
2023-01-29T19:15:21.916Z,101952.91
2023-01-29T19:17:49.541Z,101954.00
2023-01-29T19:20:16.254Z,101942.19
2023-01-29T19:22:42.623Z,101938.28
2023-01-29T19:25:09.773Z,101931.81
2023-01-29T19:27:36.283Z,101932.94
2023-01-29T19:30:05.495Z,101930.44
2023-01-29T19:32:32.508Z,101946.06
2023-01-29T19:34:58.902Z,101940.25
2023-01-29T19:37:25.829Z,101940.84
2023-01-29T19:39:53.770Z,101954.06
2023-01-29T19:42:20.890Z,101943.09
2023-01-29T19:44:47.837Z,101942.25
2023-01-29T19:47:14.451Z,101943.41
2023-01-29T19:49:40.849Z,101939.75
2023-01-29T19:52:14.712Z,101936.09
2023-01-29T19:54:46.161Z,101927.81
2023-01-29T19:57:13.003Z,101920.91
2023-01-29T19:59:39.401Z,101931.59
2023-01-29T20:02:06.258Z,101941.31
2023-01-29T20:04:32.849Z,101917.44
2023-01-29T20:06:59.477Z,101908.72
2023-01-29T20:09:25.929Z,101910.56
2023-01-29T20:11:52.390Z,101899.47
2023-01-29T20:14:18.870Z,101901.31
2023-01-29T20:16:45.269Z,101914.94
2023-01-29T20:19:13.987Z,101905.69
2023-01-29T20:21:42.181Z,101911.72
2023-01-29T20:24:12.811Z,101907.47
2023-01-29T20:26:39.517Z,101897.22
2023-01-29T20:29:06.544Z,101897.38
2023-01-29T20:31:33.488Z,101888.84
2023-01-29T20:33:59.994Z,101910.91
2023-01-29T20:36:26.379Z,101904.72
2023-01-29T20:38:52.908Z,101886.72
2023-01-29T20:41:19.887Z,101900.38
2023-01-29T20:43:47.112Z,101884.06
2023-01-29T20:46:14.069Z,101876.31
2023-01-29T20:48:41.908Z,101876.06
2023-01-29T20:51:15.525Z,101875.63
2023-01-29T20:53:43.195Z,101890.59
2023-01-29T20:56:10.179Z,101880.47
2023-01-29T20:58:37.909Z,101888.06
2023-01-29T21:01:16.016Z,101888.34
2023-01-29T21:03:42.609Z,101891.84
2023-01-29T21:06:10.348Z,101894.97
2023-01-29T21:08:37.976Z,101870.34
2023-01-29T21:11:06.033Z,101884.97
2023-01-29T21:13:32.407Z,101868.25
2023-01-29T21:15:58.969Z,101871.59
2023-01-29T21:18:26.253Z,101883.16
2023-01-29T21:20:53.590Z,101898.34
2023-01-29T21:23:20.602Z,101904.94
2023-01-29T21:25:48.036Z,101878.22
2023-01-29T21:28:15.250Z,101856.72
2023-01-29T21:30:41.804Z,101849.25
2023-01-29T21:33:08.320Z,101825.88
2023-01-29T21:35:36.884Z,101809.44
2023-01-29T21:38:04.078Z,101800.97
2023-01-29T21:40:30.607Z,101786.94
2023-01-29T21:43:12.468Z,101783.28
2023-01-29T21:45:40.094Z,101756.78
2023-01-29T21:48:07.343Z,101746.53
2023-01-29T21:50:33.835Z,101753.56
2023-01-29T21:53:00.977Z,101758.50
2023-01-29T21:55:27.706Z,101758.06
2023-01-29T21:57:54.121Z,101757.47
2023-01-29T22:00:20.721Z,101773.38
2023-01-29T22:02:47.311Z,101762.69
2023-01-29T22:05:19.197Z,101771.41
2023-01-29T22:07:46.143Z,101765.75
2023-01-29T22:10:12.946Z,101761.41
2023-01-29T22:12:39.844Z,101765.50
2023-01-29T22:15:07.705Z,101755.47
2023-01-29T22:17:35.167Z,101751.97
2023-01-29T22:20:01.748Z,101757.88
2023-01-29T22:22:28.251Z,101759.53
2023-01-29T22:24:56.317Z,101751.06
2023-01-29T22:27:22.708Z,101741.94
2023-01-29T22:29:49.087Z,101742.75
2023-01-29T22:32:16.128Z,101729.25
2023-01-29T22:34:42.612Z,101723.59
2023-01-29T22:37:09.067Z,101725.69
2023-01-29T22:39:35.473Z,101702.47
2023-01-29T22:42:02.074Z,101701.63
2023-01-29T22:44:28.428Z,101710.88
2023-01-29T22:46:54.937Z,101730.44
2023-01-29T22:49:21.386Z,101719.47
2023-01-29T22:51:48.044Z,101722.59
2023-01-29T22:54:15.485Z,101716.38
2023-01-29T22:56:41.957Z,101719.47
2023-01-29T22:59:09.841Z,101711.28
2023-01-29T23:01:36.352Z,101700.44
2023-01-29T23:04:02.765Z,101691.69
2023-01-29T23:06:29.207Z,101703.66
2023-01-29T23:08:55.634Z,101694.63
2023-01-29T23:11:23.400Z,101691.78
2023-01-29T23:13:54.474Z,101679.97
2023-01-29T23:16:26.991Z,101692.34
2023-01-29T23:18:55.632Z,101691.75
2023-01-29T23:21:25.028Z,101687.91
2023-01-29T23:24:01.303Z,101684.66
2023-01-29T23:26:47.443Z,101666.91
2023-01-29T23:29:14.581Z,101657.09
2023-01-29T23:31:41.097Z,101657.59
2023-01-29T23:34:07.581Z,101661.50
2023-01-29T23:36:34.042Z,101660.94
2023-01-29T23:39:00.456Z,101662.94
2023-01-29T23:41:26.857Z,101659.72
2023-01-29T23:43:53.235Z,101642.38
2023-01-29T23:46:19.665Z,101651.06
2023-01-29T23:48:46.061Z,101664.63
2023-01-29T23:51:12.533Z,101656.28
2023-01-29T23:53:38.993Z,101644.03
2023-01-29T23:56:06.037Z,101648.78
2023-01-29T23:58:33.359Z,101637.59
